Time;durP1;ratioP1;P1;durP2;ratioP2;P2;SDS_P1;SDS_P2;PMS_P1;PMS_P2;Temp;Humidity;BMP_temperature;BMP_pressure;BME280_temperature;BME280_humidity;BME280_pressure;Samples;Min_cycle;Max_cycle;Signal;HPM_P1;HPM_P2
2022/04/30 00:01:19;;;;;;;10.32;3.03;;;11.20;67.90;;;;;;4962302;28;20387;-71
2022/04/30 00:03:45;;;;;;;4.43;3.10;;;11.20;68.40;;;;;;4962450;28;20138;-71
2022/04/30 00:06:11;;;;;;;6.65;3.47;;;11.20;68.60;;;;;;4956262;28;20807;-71
2022/04/30 00:08:37;;;;;;;9.20;3.97;;;11.20;68.20;;;;;;4955227;28;20130;-71
2022/04/30 00:11:03;;;;;;;9.23;3.25;;;11.10;68.20;;;;;;4959273;28;20126;-71
2022/04/30 00:13:29;;;;;;;4.80;3.15;;;11.10;68.60;;;;;;4959383;28;20039;-73
2022/04/30 00:15:55;;;;;;;7.80;3.17;;;11.10;68.60;;;;;;4960920;28;20042;-71
2022/04/30 00:18:21;;;;;;;9.23;3.90;;;11.10;68.80;;;;;;4960804;28;20039;-70
2022/04/30 00:20:47;;;;;;;10.00;3.67;;;11.10;69.20;;;;;;4943683;28;20109;-70
2022/04/30 00:23:20;;;;;;;7.15;3.78;;;11.20;69.30;;;;;;4959506;28;20035;-70
2022/04/30 00:25:49;;;;;;;5.72;3.50;;;11.10;69.20;;;;;;4957792;28;20137;-71
2022/04/30 00:28:16;;;;;;;7.80;3.50;;;11.10;69.30;;;;;;4955957;28;20034;-71
2022/04/30 00:30:44;;;;;;;6.65;3.45;;;11.10;69.20;;;;;;4939000;28;20608;-71
2022/04/30 00:33:10;;;;;;;6.05;3.20;;;11.10;69.10;;;;;;4950644;28;20062;-71
2022/04/30 00:35:36;;;;;;;5.03;2.78;;;11.10;69.20;;;;;;4960961;28;20125;-71
2022/04/30 00:38:02;;;;;;;8.85;3.30;;;11.10;69.70;;;;;;4958289;28;20118;-71
2022/04/30 00:40:28;;;;;;;6.47;3.30;;;11.10;69.60;;;;;;4960406;28;20487;-71
2022/04/30 00:42:54;;;;;;;9.35;3.38;;;11.00;69.70;;;;;;4954725;28;20652;-71
2022/04/30 00:45:20;;;;;;;6.20;2.88;;;11.00;70.20;;;;;;4956257;28;20023;-71
2022/04/30 00:47:46;;;;;;;6.18;3.15;;;11.00;70.30;;;;;;4952395;28;20443;-71
2022/04/30 00:50:16;;;;;;;5.80;3.22;;;10.90;70.80;;;;;;4953995;28;20031;-71
2022/04/30 00:52:46;;;;;;;6.32;3.13;;;10.90;70.90;;;;;;4953454;28;20060;-71
2022/04/30 00:55:13;;;;;;;4.65;3.03;;;10.80;71.20;;;;;;4958927;28;20130;-71
2022/04/30 00:57:43;;;;;;;9.23;3.65;;;10.80;71.10;;;;;;4957717;28;20042;-71
2022/04/30 01:00:10;;;;;;;7.90;3.08;;;10.70;71.10;;;;;;4955520;28;20035;-71
2022/04/30 01:02:52;;;;;;;3.90;2.88;;;10.60;71.20;;;;;;4945238;28;20065;-71
2022/04/30 01:05:36;;;;;;;5.55;3.17;;;10.60;71.50;;;;;;4956296;28;20046;-71
2022/04/30 01:08:02;;;;;;;7.18;2.92;;;10.50;72.20;;;;;;4954824;28;20042;-71
2022/04/30 01:10:28;;;;;;;5.47;3.25;;;10.50;72.40;;;;;;4955195;28;20037;-71
2022/04/30 01:12:54;;;;;;;4.00;3.08;;;10.40;73.10;;;;;;4954170;28;20284;-71
2022/04/30 01:15:20;;;;;;;7.95;3.50;;;10.40;73.30;;;;;;4938650;28;20076;-71
2022/04/30 01:17:46;;;;;;;6.68;3.22;;;10.30;73.30;;;;;;4955126;28;20066;-71
2022/04/30 01:20:12;;;;;;;6.95;3.00;;;10.30;73.60;;;;;;4958376;28;20138;-71
2022/04/30 01:22:59;;;;;;;5.97;3.42;;;10.20;74.60;;;;;;4958379;28;20019;-71
2022/04/30 01:25:25;;;;;;;4.25;3.13;;;10.10;74.20;;;;;;4955785;28;20077;-71
2022/04/30 01:27:52;;;;;;;8.90;3.38;;;10.10;74.30;;;;;;4955538;28;20766;-70
2022/04/30 01:30:19;;;;;;;7.78;3.30;;;10.00;74.50;;;;;;4952125;28;20944;-70
2022/04/30 01:38:15;;;;;;;5.28;3.00;;;10.00;75.00;;;;;;4958572;28;20109;-71
2022/04/30 01:40:41;;;;;;;5.13;3.00;;;9.90;75.10;;;;;;4958851;28;20089;-71
2022/04/30 01:43:07;;;;;;;7.80;3.13;;;9.90;75.90;;;;;;4956129;28;20039;-71
2022/04/30 01:45:34;;;;;;;6.45;3.35;;;9.80;76.20;;;;;;4955809;28;20026;-70
2022/04/30 01:48:02;;;;;;;4.13;3.13;;;9.80;76.80;;;;;;4953018;28;20043;-71
2022/04/30 01:50:28;;;;;;;5.88;2.97;;;9.80;77.10;;;;;;4955343;28;20034;-70
2022/04/30 01:52:54;;;;;;;4.68;3.20;;;9.70;77.00;;;;;;4959935;28;20042;-70
2022/04/30 01:55:20;;;;;;;6.18;2.80;;;9.70;77.20;;;;;;4959468;28;20185;-70
2022/04/30 01:57:50;;;;;;;6.57;3.08;;;9.70;77.30;;;;;;4944443;28;20086;-71
2022/04/30 02:00:20;;;;;;;6.05;3.08;;;9.60;77.90;;;;;;4944563;28;20031;-70
2022/04/30 02:02:49;;;;;;;7.20;2.90;;;9.60;78.20;;;;;;4945567;28;20077;-70
2022/04/30 02:05:15;;;;;;;5.63;2.80;;;9.50;78.40;;;;;;4952130;28;20030;-70
2022/04/30 02:07:49;;;;;;;3.65;2.72;;;9.60;78.80;;;;;;4954418;28;20503;-71
2022/04/30 02:10:15;;;;;;;3.65;2.75;;;9.50;79.00;;;;;;4960177;28;20045;-71
2022/04/30 02:12:41;;;;;;;4.43;2.65;;;9.50;79.00;;;;;;4959039;28;20034;-70
2022/04/30 02:15:09;;;;;;;5.53;2.47;;;9.50;78.90;;;;;;4955724;28;20479;-70
2022/04/30 02:17:38;;;;;;;5.72;3.42;;;9.50;79.50;;;;;;4956604;28;20050;-70
2022/04/30 02:20:18;;;;;;;4.35;3.00;;;9.50;79.80;;;;;;4953323;28;20089;-70
2022/04/30 02:22:49;;;;;;;5.40;2.80;;;9.50;80.20;;;;;;4954302;28;20499;-71
2022/04/30 02:25:16;;;;;;;5.05;3.10;;;9.40;80.20;;;;;;4954331;28;20034;-71
2022/04/30 02:27:44;;;;;;;6.32;2.88;;;9.40;80.60;;;;;;4954435;28;20035;-70
2022/04/30 02:30:12;;;;;;;6.10;2.92;;;9.40;80.80;;;;;;4957903;28;20047;-70
2022/04/30 02:32:43;;;;;;;5.90;2.80;;;9.40;80.70;;;;;;4956490;28;20046;-69
2022/04/30 02:35:09;;;;;;;4.72;3.17;;;9.40;80.70;;;;;;4955029;28;20436;-71
2022/04/30 02:37:36;;;;;;;4.25;2.72;;;9.30;80.70;;;;;;4954276;28;20031;-71
2022/04/30 02:40:05;;;;;;;4.20;2.70;;;9.30;80.80;;;;;;4956400;28;20035;-71
2022/04/30 02:42:32;;;;;;;4.88;2.88;;;9.30;81.00;;;;;;4954560;28;20049;-69
2022/04/30 02:44:58;;;;;;;3.38;2.30;;;9.30;81.40;;;;;;4957661;28;20031;-69
2022/04/30 02:47:24;;;;;;;3.65;2.17;;;9.30;82.00;;;;;;4959290;28;20755;-71
2022/04/30 02:49:49;;;;;;;4.45;1.92;;;9.20;82.20;;;;;;4960212;28;20089;-68
2022/04/30 02:52:15;;;;;;;4.85;2.30;;;9.20;82.20;;;;;;4952748;28;20081;-71
2022/04/30 02:54:41;;;;;;;5.38;2.22;;;9.20;82.40;;;;;;4955555;28;20045;-71
2022/04/30 02:57:06;;;;;;;4.50;2.05;;;9.20;82.60;;;;;;4956873;28;20541;-71
2022/04/30 03:02:37;;;;;;;5.50;1.98;;;9.10;82.60;;;;;;4956301;28;20030;-71
2022/04/30 03:05:03;;;;;;;3.75;2.42;;;9.10;82.90;;;;;;4952440;28;20054;-70
2022/04/30 03:07:29;;;;;;;3.33;2.10;;;9.10;83.30;;;;;;4951490;28;20034;-70
2022/04/30 03:09:55;;;;;;;3.65;2.13;;;9.00;83.40;;;;;;4958834;28;20113;-70
2022/04/30 03:12:21;;;;;;;5.00;2.17;;;9.10;83.60;;;;;;4956258;28;20573;-70
2022/04/30 03:14:47;;;;;;;3.67;2.28;;;9.00;83.70;;;;;;4954556;28;20042;-70
2022/04/30 03:22:41;;;;;;;2.85;1.98;;;8.90;84.10;;;;;;4949801;28;20034;-70
2022/04/30 03:25:07;;;;;;;9.05;2.38;;;8.90;84.30;;;;;;4958130;28;20038;-71
2022/04/30 03:27:34;;;;;;;2.88;2.22;;;8.90;84.40;;;;;;4956324;28;20045;-70
2022/04/30 03:29:59;;;;;;;6.35;2.03;;;8.80;84.50;;;;;;4955391;28;20109;-70
2022/04/30 03:32:25;;;;;;;7.32;1.92;;;8.80;84.60;;;;;;4958524;28;20779;-70
2022/04/30 03:34:51;;;;;;;3.90;1.88;;;8.80;85.00;;;;;;4956264;28;20241;-70
2022/04/30 03:37:18;;;;;;;4.90;2.28;;;8.80;85.10;;;;;;4950944;28;20113;-70
2022/04/30 03:39:43;;;;;;;4.57;2.10;;;8.80;85.40;;;;;;4936171;28;20093;-71
2022/04/30 03:42:09;;;;;;;3.63;2.00;;;8.80;85.40;;;;;;4953114;28;20423;-71
2022/04/30 03:44:35;;;;;;;3.85;2.35;;;8.70;85.40;;;;;;4959271;28;20046;-71
2022/04/30 03:47:01;;;;;;;4.15;2.20;;;8.70;85.50;;;;;;4957729;28;20802;-71
2022/04/30 03:49:27;;;;;;;5.60;2.25;;;8.70;85.70;;;;;;4954809;28;20034;-71
2022/04/30 03:51:54;;;;;;;3.08;2.13;;;8.70;85.80;;;;;;4958563;28;20086;-71
2022/04/30 03:54:21;;;;;;;7.93;2.33;;;8.70;85.90;;;;;;4956603;28;20042;-70
2022/04/30 03:56:46;;;;;;;4.38;2.28;;;8.70;86.00;;;;;;4959772;28;20030;-72
2022/04/30 03:59:12;;;;;;;4.25;1.90;;;8.70;85.90;;;;;;4952667;28;20035;-71
2022/04/30 04:01:38;;;;;;;3.20;2.08;;;8.70;86.50;;;;;;4956220;28;20031;-71
2022/04/30 04:04:04;;;;;;;6.80;2.20;;;8.70;86.20;;;;;;4955233;28;20031;-70
2022/04/30 04:06:31;;;;;;;7.65;2.10;;;8.70;86.80;;;;;;4953571;28;20027;-70
2022/04/30 04:08:59;;;;;;;3.83;1.85;;;8.70;86.30;;;;;;4934902;28;20039;-70
2022/04/30 04:11:26;;;;;;;6.35;2.08;;;8.70;86.40;;;;;;4950312;28;20042;-70
2022/04/30 04:19:23;;;;;;;4.95;2.55;;;8.80;85.90;;;;;;4951344;28;20039;-70
2022/04/30 04:21:50;;;;;;;4.63;2.38;;;8.80;85.50;;;;;;4958557;28;20066;-70
2022/04/30 04:27:01;;;;;;;6.05;2.30;;;8.80;85.40;;;;;;4954230;28;20118;-70
2022/04/30 04:29:27;;;;;;;4.28;2.25;;;8.80;85.70;;;;;;4958249;28;20034;-70
2022/04/30 04:31:52;;;;;;;4.38;2.45;;;8.80;85.90;;;;;;4954528;28;20042;-70
2022/04/30 04:34:18;;;;;;;4.30;1.90;;;8.90;86.00;;;;;;4957817;28;20039;-70
2022/04/30 04:36:44;;;;;;;7.68;2.45;;;8.90;86.00;;;;;;4955791;28;20019;-70
2022/04/30 04:39:14;;;;;;;4.85;1.88;;;8.90;86.00;;;;;;4960044;28;20930;-70
2022/04/30 04:41:44;;;;;;;5.63;2.05;;;9.00;86.00;;;;;;4955907;28;20923;-69
2022/04/30 04:44:10;;;;;;;3.08;2.17;;;9.10;86.10;;;;;;4962272;28;20031;-70
2022/04/30 04:46:39;;;;;;;4.95;2.60;;;9.10;86.00;;;;;;4955183;28;20707;-70
2022/04/30 04:49:06;;;;;;;3.35;2.08;;;9.20;85.90;;;;;;4960117;28;20104;-70
2022/04/30 04:51:34;;;;;;;5.68;2.42;;;9.30;85.80;;;;;;4957312;28;20034;-70
2022/04/30 04:54:01;;;;;;;5.78;2.33;;;9.40;85.70;;;;;;4937606;28;20035;-70
2022/04/30 04:56:27;;;;;;;5.57;1.83;;;9.60;85.50;;;;;;4955609;28;20049;-70
2022/04/30 04:58:53;;;;;;;5.15;2.30;;;9.70;85.20;;;;;;4959340;28;20035;-70
2022/04/30 05:01:19;;;;;;;5.93;2.50;;;9.80;85.00;;;;;;4962035;28;20046;-71
2022/04/30 05:03:44;;;;;;;3.67;2.85;;;9.90;84.70;;;;;;4957343;28;20082;-70
2022/04/30 05:06:10;;;;;;;6.00;3.08;;;10.00;84.50;;;;;;4940365;28;20133;-70
2022/04/30 05:08:36;;;;;;;6.28;2.40;;;10.10;84.30;;;;;;4956309;28;20045;-70
2022/04/30 05:11:02;;;;;;;7.55;2.63;;;10.30;84.10;;;;;;4955701;28;20034;-70
2022/04/30 05:13:27;;;;;;;4.30;2.60;;;10.50;83.60;;;;;;4962417;28;20050;-70
2022/04/30 05:15:53;;;;;;;4.55;2.40;;;10.70;82.80;;;;;;4961827;28;20084;-70
2022/04/30 05:18:20;;;;;;;3.63;2.10;;;10.80;82.40;;;;;;4956683;28;20027;-71
2022/04/30 05:20:46;;;;;;;6.43;2.45;;;11.00;82.00;;;;;;4959169;28;20026;-70
2022/04/30 05:23:12;;;;;;;5.20;2.60;;;11.10;81.20;;;;;;4958398;28;20031;-70
2022/04/30 05:25:40;;;;;;;7.50;2.65;;;11.30;80.70;;;;;;4959616;28;20034;-70
2022/04/30 05:28:07;;;;;;;6.30;2.60;;;11.50;79.30;;;;;;4959385;28;20045;-70
2022/04/30 05:30:33;;;;;;;12.27;2.60;;;11.70;78.70;;;;;;4956365;28;20056;-71
2022/04/30 05:32:59;;;;;;;4.57;2.60;;;11.80;77.30;;;;;;4955507;28;20114;-70
2022/04/30 05:35:25;;;;;;;8.70;2.85;;;12.10;76.10;;;;;;4934682;28;20073;-70
2022/04/30 05:37:51;;;;;;;4.78;2.30;;;12.20;75.60;;;;;;4959736;28;20023;-71
2022/04/30 05:40:18;;;;;;;7.10;2.78;;;12.40;75.10;;;;;;4959687;28;20042;-71
2022/04/30 05:42:44;;;;;;;5.22;2.50;;;12.50;74.60;;;;;;4959643;28;20038;-70
2022/04/30 05:45:10;;;;;;;5.50;2.83;;;12.60;73.60;;;;;;4959234;28;20042;-71
2022/04/30 05:47:37;;;;;;;6.80;2.72;;;12.70;72.60;;;;;;4958651;28;20038;-71
2022/04/30 05:50:05;;;;;;;5.05;2.55;;;12.70;72.40;;;;;;4958116;28;20476;-71
2022/04/30 05:52:33;;;;;;;6.88;2.47;;;12.90;72.00;;;;;;4954120;28;20041;-70
2022/04/30 05:55:01;;;;;;;8.07;2.97;;;13.00;71.70;;;;;;4957095;28;20035;-71
2022/04/30 05:57:28;;;;;;;4.78;2.53;;;12.90;70.50;;;;;;4961633;28;20648;-70
2022/04/30 05:59:55;;;;;;;7.43;2.70;;;12.80;69.20;;;;;;4954049;28;20087;-71
2022/04/30 06:02:20;;;;;;;7.72;2.10;;;12.80;69.60;;;;;;4956587;28;20129;-70
2022/04/30 06:04:46;;;;;;;4.82;2.50;;;12.80;69.90;;;;;;4960825;28;20495;-71
2022/04/30 06:07:12;;;;;;;7.55;3.10;;;12.80;70.10;;;;;;4958523;28;20787;-71
2022/04/30 06:09:38;;;;;;;6.03;2.50;;;12.80;70.00;;;;;;4944930;28;20065;-71
2022/04/30 06:12:05;;;;;;;8.02;2.65;;;12.90;70.30;;;;;;4953826;28;20117;-71
2022/04/30 06:14:30;;;;;;;5.10;2.55;;;13.10;70.10;;;;;;4953975;28;20050;-71
2022/04/30 06:16:57;;;;;;;3.80;2.35;;;13.20;68.80;;;;;;4951694;28;20052;-70
2022/04/30 06:19:23;;;;;;;5.75;2.38;;;13.40;68.80;;;;;;4956591;28;20122;-71
2022/04/30 06:21:49;;;;;;;2.75;2.10;;;13.70;68.00;;;;;;4955929;28;20113;-71
2022/04/30 06:24:15;;;;;;;5.50;2.28;;;13.80;67.00;;;;;;4955609;28;20487;-71
2022/04/30 06:26:41;;;;;;;3.35;1.98;;;14.00;66.40;;;;;;4958591;28;20026;-71
2022/04/30 06:29:07;;;;;;;3.13;2.47;;;14.10;65.00;;;;;;4958315;28;20052;-71
2022/04/30 06:31:33;;;;;;;5.50;2.42;;;14.30;65.00;;;;;;4954092;28;20059;-71
2022/04/30 06:33:59;;;;;;;4.30;2.28;;;14.40;64.80;;;;;;4960718;28;20035;-71
2022/04/30 06:36:24;;;;;;;5.05;2.35;;;14.60;63.10;;;;;;4960242;28;20109;-71
2022/04/30 06:38:50;;;;;;;4.05;2.10;;;14.80;62.60;;;;;;4937587;28;20026;-71
2022/04/30 06:41:16;;;;;;;3.83;2.05;;;14.90;61.70;;;;;;4956881;28;20069;-71
2022/04/30 06:43:42;;;;;;;4.68;2.47;;;15.20;61.60;;;;;;4957480;28;20037;-71
2022/04/30 06:46:08;;;;;;;6.35;2.30;;;15.40;60.30;;;;;;4956255;28;20034;-71
2022/04/30 06:48:34;;;;;;;3.72;2.38;;;15.60;59.30;;;;;;4937750;28;20474;-71
2022/04/30 06:51:00;;;;;;;5.18;2.65;;;15.80;59.10;;;;;;4952862;28;20490;-71
2022/04/30 06:58:56;;;;;;;6.45;2.42;;;16.00;57.30;;;;;;4957139;28;20031;-71
2022/04/30 07:04:07;;;;;;;6.95;2.30;;;16.60;56.40;;;;;;4953564;28;20035;-71
2022/04/30 07:06:34;;;;;;;9.85;2.60;;;17.10;55.00;;;;;;4951731;28;20046;-71
2022/04/30 07:09:01;;;;;;;5.28;2.67;;;17.50;53.90;;;;;;4953674;28;20034;-71
2022/04/30 07:11:27;;;;;;;6.55;2.78;;;17.90;53.10;;;;;;4960221;28;20031;-71
2022/04/30 07:13:53;;;;;;;7.30;2.20;;;18.10;51.80;;;;;;4959632;28;20623;-71
2022/04/30 07:16:19;;;;;;;5.28;2.22;;;18.10;52.30;;;;;;4951309;28;20522;-71
2022/04/30 07:18:45;;;;;;;3.63;2.47;;;18.20;52.30;;;;;;4939339;28;20023;-71
2022/04/30 07:21:10;;;;;;;5.40;2.40;;;18.40;51.90;;;;;;4956443;28;20027;-71
2022/04/30 07:23:36;;;;;;;7.22;2.75;;;18.70;51.70;;;;;;4954316;28;20122;-71
2022/04/30 07:26:02;;;;;;;5.25;2.40;;;18.90;51.30;;;;;;4955708;28;20041;-71
2022/04/30 07:28:35;;;;;;;6.53;2.47;;;19.00;50.30;;;;;;4954086;28;20581;-71
2022/04/30 07:31:02;;;;;;;5.30;2.55;;;19.00;49.40;;;;;;4953213;28;20515;-71
2022/04/30 07:33:28;;;;;;;5.60;2.17;;;19.30;50.20;;;;;;4950256;28;20399;-71
2022/04/30 07:35:55;;;;;;;4.30;2.58;;;19.50;48.20;;;;;;4952522;28;20081;-71
2022/04/30 07:38:22;;;;;;;3.47;2.15;;;19.40;48.80;;;;;;4955914;28;20329;-71
2022/04/30 07:40:48;;;;;;;3.97;2.60;;;19.40;49.10;;;;;;4955127;28;20031;-71
2022/04/30 07:43:13;;;;;;;4.63;2.63;;;19.50;48.80;;;;;;4956677;28;20709;-71
2022/04/30 07:45:39;;;;;;;7.47;3.13;;;19.50;48.40;;;;;;4954072;28;20525;-71
2022/04/30 07:48:05;;;;;;;6.97;2.28;;;19.30;48.30;;;;;;4952853;28;20496;-71
2022/04/30 07:50:35;;;;;;;5.68;2.55;;;19.20;49.00;;;;;;4955050;28;20044;-71
2022/04/30 07:53:06;;;;;;;3.53;2.10;;;18.90;49.60;;;;;;4955200;28;20062;-71
2022/04/30 07:55:32;;;;;;;3.72;2.38;;;18.60;50.20;;;;;;4954620;28;20044;-71
2022/04/30 07:57:58;;;;;;;2.58;2.13;;;18.60;51.00;;;;;;4957422;28;20030;-72
2022/04/30 08:00:26;;;;;;;4.43;2.50;;;18.60;50.90;;;;;;4956841;28;20097;-69
2022/04/30 08:02:56;;;;;;;5.00;2.58;;;18.40;51.60;;;;;;4952959;28;20031;-71
2022/04/30 08:05:25;;;;;;;6.45;2.75;;;18.30;51.20;;;;;;4951695;28;20031;-72
2022/04/30 08:07:52;;;;;;;9.52;3.13;;;18.20;51.30;;;;;;4951473;28;20295;-72
2022/04/30 08:10:18;;;;;;;4.90;2.95;;;18.30;51.40;;;;;;4954188;28;20039;-72
2022/04/30 08:12:44;;;;;;;5.45;2.30;;;18.60;50.50;;;;;;4953713;28;20042;-72
2022/04/30 08:15:10;;;;;;;6.15;2.38;;;19.20;49.20;;;;;;4959440;28;20035;-71
2022/04/30 08:17:38;;;;;;;5.78;2.80;;;19.60;48.90;;;;;;4923499;28;20037;-72
2022/04/30 08:20:08;;;;;;;12.70;2.80;;;20.00;48.00;;;;;;4960140;28;20503;-72
2022/04/30 08:22:33;;;;;;;6.95;2.65;;;20.40;47.10;;;;;;4959371;28;20031;-71
2022/04/30 08:25:03;;;;;;;6.30;2.40;;;20.40;46.60;;;;;;4957988;28;20483;-72
2022/04/30 08:27:29;;;;;;;5.25;2.35;;;20.30;46.90;;;;;;4963321;28;20419;-72
2022/04/30 08:29:54;;;;;;;6.82;2.92;;;20.40;47.30;;;;;;4960061;28;20105;-71
2022/04/30 08:32:24;;;;;;;6.00;2.55;;;20.80;45.90;;;;;;4960363;28;20026;-69
2022/04/30 08:34:50;;;;;;;6.53;2.83;;;21.50;44.70;;;;;;4956421;28;20125;-70
2022/04/30 08:37:16;;;;;;;6.82;2.72;;;21.80;43.20;;;;;;4957423;28;20031;-70
2022/04/30 08:39:43;;;;;;;5.05;2.80;;;22.10;42.60;;;;;;4955594;28;20450;-70
2022/04/30 08:42:09;;;;;;;7.90;3.05;;;22.10;42.60;;;;;;4955163;28;20035;-71
2022/04/30 08:44:38;;;;;;;5.63;2.95;;;22.40;42.50;;;;;;4959611;28;20050;-68
2022/04/30 08:47:04;;;;;;;4.88;2.58;;;22.90;42.00;;;;;;4960300;28;20165;-71
2022/04/30 08:49:33;;;;;;;5.68;3.28;;;23.10;40.50;;;;;;4958127;28;20026;-70
2022/04/30 08:51:59;;;;;;;6.45;2.50;;;23.20;40.50;;;;;;4956902;28;20039;-73
2022/04/30 08:54:25;;;;;;;3.67;2.88;;;24.00;39.30;;;;;;4955440;28;20030;-71
2022/04/30 08:56:56;;;;;;;6.32;2.88;;;24.60;39.10;;;;;;4957777;28;20089;-73
2022/04/30 08:59:22;;;;;;;5.72;3.05;;;24.80;38.20;;;;;;4956142;28;20503;-71
2022/04/30 09:01:53;;;;;;;3.83;2.60;;;25.30;36.90;;;;;;4953352;28;20046;-68
2022/04/30 09:04:20;;;;;;;6.03;2.65;;;25.30;37.10;;;;;;4955680;28;20031;-71
2022/04/30 09:06:55;;;;;;;7.38;2.70;;;26.10;36.50;;;;;;4956367;28;20041;-69
2022/04/30 09:09:27;;;;;;;6.88;2.58;;;27.70;34.20;;;;;;4956433;28;20039;-70
2022/04/30 09:11:56;;;;;;;7.25;3.08;;;27.60;33.50;;;;;;4958409;28;20073;-71
2022/04/30 09:14:28;;;;;;;6.82;2.67;;;27.00;33.30;;;;;;4956723;28;20031;-71
2022/04/30 09:17:05;;;;;;;6.10;3.15;;;26.30;34.40;;;;;;4955584;28;20031;-71
2022/04/30 09:19:46;;;;;;;3.85;2.47;;;25.60;35.10;;;;;;4952525;28;20030;-70
2022/04/30 09:22:14;;;;;;;4.82;2.85;;;25.30;36.20;;;;;;4956302;28;20050;-70
2022/04/30 09:24:50;;;;;;;4.72;2.75;;;25.20;36.50;;;;;;4962260;28;20039;-71
2022/04/30 09:27:17;;;;;;;5.25;2.58;;;25.30;36.30;;;;;;4961255;28;20134;-71
2022/04/30 09:29:44;;;;;;;4.22;3.00;;;25.30;36.40;;;;;;4957198;28;20649;-70
2022/04/30 09:32:18;;;;;;;5.07;2.72;;;24.80;36.90;;;;;;4956274;28;20054;-72
2022/04/30 09:37:42;;;;;;;4.80;2.78;;;25.10;37.30;;;;;;4959121;28;20122;-72
2022/04/30 09:40:13;;;;;;;6.15;2.60;;;26.90;35.10;;;;;;4936828;28;20039;-73
2022/04/30 09:42:44;;;;;;;6.07;2.80;;;28.60;32.80;;;;;;4963006;28;20031;-69
2022/04/30 09:45:29;;;;;;;4.57;2.88;;;31.30;30.10;;;;;;4957620;28;20039;-73
2022/04/30 09:47:57;;;;;;;6.63;3.20;;;32.60;29.10;;;;;;4957026;28;20031;-72
2022/04/30 09:55:55;;;;;;;5.80;2.92;;;28.20;32.50;;;;;;4958634;28;20062;-72
2022/04/30 09:58:24;;;;;;;7.07;3.10;;;28.40;31.70;;;;;;4955585;28;20019;-72
2022/04/30 10:00:55;;;;;;;14.32;3.38;;;29.10;31.20;;;;;;4951546;28;20035;-71
2022/04/30 10:03:29;;;;;;;5.38;2.65;;;29.40;30.80;;;;;;4957810;28;20031;-69
2022/04/30 10:06:05;;;;;;;5.20;2.78;;;29.20;31.80;;;;;;4958565;28;20531;-71
2022/04/30 10:08:37;;;;;;;7.32;3.20;;;29.30;31.70;;;;;;4954853;28;20046;-72
2022/04/30 10:11:32;;;;;;;7.15;2.80;;;29.20;30.90;;;;;;4951556;28;20039;-71
2022/04/30 10:14:24;;;;;;;5.07;2.35;;;29.90;30.40;;;;;;4954076;28;20066;-71
2022/04/30 10:19:35;;;;;;;4.03;2.40;;;30.60;29.40;;;;;;4954211;28;20035;-71
2022/04/30 10:22:13;;;;;;;3.80;2.80;;;29.00;30.70;;;;;;4958106;28;20106;-72
2022/04/30 10:24:47;;;;;;;7.63;3.00;;;28.10;31.40;;;;;;4955843;28;20026;-72
2022/04/30 10:27:14;;;;;;;5.40;2.80;;;27.70;31.90;;;;;;4955504;28;20041;-72
2022/04/30 10:30:00;;;;;;;5.68;3.63;;;27.00;32.80;;;;;;4957042;28;20031;-72
2022/04/30 10:32:27;;;;;;;5.00;3.13;;;27.20;33.30;;;;;;4957485;28;20045;-73
2022/04/30 10:34:53;;;;;;;11.40;3.72;;;27.70;32.70;;;;;;4954659;28;20038;-74
2022/04/30 10:37:28;;;;;;;6.30;2.75;;;27.70;31.70;;;;;;4953959;28;20037;-74
2022/04/30 10:39:58;;;;;;;6.68;3.30;;;27.30;32.70;;;;;;4956732;28;20027;-71
2022/04/30 10:42:44;;;;;;;5.93;3.20;;;27.20;32.00;;;;;;4960073;28;20113;-70
2022/04/30 10:45:15;;;;;;;7.75;3.13;;;27.00;33.10;;;;;;4959520;28;20038;-70
2022/04/30 10:47:52;;;;;;;5.35;3.22;;;26.70;33.00;;;;;;4958385;28;20046;-69
2022/04/30 10:50:18;;;;;;;5.50;3.08;;;26.10;34.40;;;;;;4954356;28;20035;-69
2022/04/30 10:52:49;;;;;;;5.90;2.78;;;25.20;35.90;;;;;;4956007;28;20023;-69
2022/04/30 10:55:17;;;;;;;6.82;3.30;;;24.90;36.10;;;;;;4942770;28;20089;-65
2022/04/30 10:57:44;;;;;;;7.82;2.90;;;24.80;36.10;;;;;;4950404;28;20062;-69
2022/04/30 11:00:11;;;;;;;5.00;2.50;;;25.20;35.80;;;;;;4959611;28;20038;-69
2022/04/30 11:02:37;;;;;;;4.90;2.70;;;25.90;35.90;;;;;;4958979;28;20854;-69
2022/04/30 11:05:03;;;;;;;9.10;3.25;;;26.50;34.40;;;;;;4959373;28;20035;-69
2022/04/30 11:07:31;;;;;;;5.72;2.70;;;26.10;33.90;;;;;;4957691;28;20398;-70
2022/04/30 11:09:57;;;;;;;5.38;2.75;;;25.90;34.90;;;;;;4957910;28;20042;-70
2022/04/30 11:12:33;;;;;;;3.15;2.15;;;25.60;35.10;;;;;;4960500;28;20034;-70
2022/04/30 11:14:59;;;;;;;6.45;3.33;;;25.30;35.70;;;;;;4942967;28;20077;-70
2022/04/30 11:17:26;;;;;;;4.93;3.00;;;24.70;36.00;;;;;;4960666;28;20037;-70
2022/04/30 11:19:52;;;;;;;7.32;3.00;;;24.40;36.20;;;;;;4961127;28;20022;-70
2022/04/30 11:22:20;;;;;;;6.18;2.50;;;24.00;37.80;;;;;;4957875;28;20448;-70
2022/04/30 11:24:46;;;;;;;5.47;2.67;;;23.80;37.10;;;;;;4953821;28;20057;-70
2022/04/30 11:27:12;;;;;;;5.80;2.50;;;23.80;37.50;;;;;;4960384;28;20061;-70
2022/04/30 11:29:49;;;;;;;4.03;2.13;;;24.00;36.90;;;;;;4950949;28;20464;-69
2022/04/30 11:32:27;;;;;;;6.85;2.92;;;24.40;36.80;;;;;;4957131;28;20045;-70
2022/04/30 11:34:54;;;;;;;6.45;2.65;;;24.70;37.20;;;;;;4939746;28;20035;-69
2022/04/30 11:37:20;;;;;;;5.55;2.80;;;25.00;36.20;;;;;;4957743;28;20030;-70
2022/04/30 11:39:46;;;;;;;5.20;2.53;;;25.20;36.00;;;;;;4959066;28;20031;-70
2022/04/30 11:42:12;;;;;;;6.03;3.63;;;25.10;35.70;;;;;;4954486;28;20035;-69
2022/04/30 11:44:38;;;;;;;4.68;3.05;;;25.00;36.70;;;;;;4958881;28;20109;-70
2022/04/30 11:47:08;;;;;;;5.80;2.45;;;24.70;36.20;;;;;;4951954;28;20035;-70
2022/04/30 11:49:34;;;;;;;6.53;2.85;;;24.10;37.90;;;;;;4957125;28;20045;-71
2022/04/30 11:52:00;;;;;;;4.10;2.30;;;24.10;38.10;;;;;;4953672;28;20059;-71
2022/04/30 11:54:28;;;;;;;9.05;2.95;;;24.00;38.70;;;;;;4959656;28;20820;-71
2022/04/30 11:56:53;;;;;;;6.95;2.60;;;23.90;38.10;;;;;;4957700;28;20041;-71
2022/04/30 11:59:34;;;;;;;6.05;2.60;;;23.90;38.10;;;;;;4959376;28;20031;-71
2022/04/30 12:02:10;;;;;;;5.05;2.55;;;23.90;38.50;;;;;;4957802;28;20027;-71
2022/04/30 12:04:36;;;;;;;;;;;24.10;37.80;;;;;;4960814;28;20523;-71
2022/04/30 12:07:06;;;;;;;5.18;2.20;;;23.80;37.80;;;;;;4955869;28;20393;-72
2022/04/30 12:09:37;;;;;;;8.45;2.45;;;23.60;38.70;;;;;;4959562;28;20042;-71
2022/04/30 12:12:16;;;;;;;5.75;2.67;;;23.80;38.30;;;;;;4938003;28;20035;-70
2022/04/30 12:14:55;;;;;;;2.35;1.83;;;23.70;38.10;;;;;;4959372;28;20035;-70
2022/04/30 12:17:31;;;;;;;4.88;2.15;;;23.60;38.70;;;;;;4959659;28;20077;-70
2022/04/30 12:25:44;;;;;;;4.95;2.63;;;24.20;37.80;;;;;;4957698;28;20074;-69
2022/04/30 12:28:11;;;;;;;3.00;2.20;;;24.00;36.90;;;;;;4957589;28;20542;-70
2022/04/30 12:30:49;;;;;;;3.47;2.22;;;24.00;37.90;;;;;;4958599;28;20042;-71
2022/04/30 12:33:15;;;;;;;5.47;2.45;;;23.70;37.30;;;;;;4957989;28;20052;-71
2022/04/30 12:35:41;;;;;;;4.05;2.15;;;23.60;37.00;;;;;;4960283;28;20294;-71
2022/04/30 12:38:12;;;;;;;5.30;2.50;;;23.60;38.10;;;;;;4961065;28;20756;-71
2022/04/30 12:40:40;;;;;;;5.07;2.13;;;23.50;37.70;;;;;;4959168;28;20057;-70
2022/04/30 12:43:06;;;;;;;5.00;2.80;;;23.50;38.60;;;;;;4959416;28;20035;-69
2022/04/30 12:45:33;;;;;;;3.95;2.03;;;23.50;37.50;;;;;;4957376;28;20539;-70
2022/04/30 12:47:59;;;;;;;4.97;2.17;;;23.50;38.10;;;;;;4959647;28;20039;-70
2022/04/30 12:50:26;;;;;;;5.65;2.60;;;23.60;38.20;;;;;;4960158;28;20109;-69
2022/04/30 12:52:52;;;;;;;4.53;2.50;;;23.50;38.00;;;;;;4963025;28;20811;-70
2022/04/30 12:55:18;;;;;;;3.63;2.17;;;23.30;38.30;;;;;;4943352;28;20514;-71
2022/04/30 12:57:45;;;;;;;3.45;2.00;;;23.30;38.90;;;;;;4963330;28;20018;-70
2022/04/30 13:00:12;;;;;;;8.77;2.55;;;23.30;38.60;;;;;;4956616;28;20023;-70
2022/04/30 13:02:39;;;;;;;4.97;2.08;;;23.30;37.90;;;;;;4956418;28;20444;-70
2022/04/30 13:05:09;;;;;;;3.97;1.98;;;23.30;37.90;;;;;;4945302;28;20133;-70
2022/04/30 13:07:37;;;;;;;4.90;2.33;;;23.20;37.60;;;;;;4956813;28;20697;-70
2022/04/30 13:15:32;;;;;;;6.65;2.03;;;22.50;39.90;;;;;;4962043;28;20296;-70
2022/04/30 13:17:58;;;;;;;3.47;1.92;;;22.50;39.50;;;;;;4957330;28;20039;-70
2022/04/30 13:20:25;;;;;;;4.30;2.22;;;22.60;40.00;;;;;;4956261;28;20038;-70
2022/04/30 13:22:52;;;;;;;5.00;2.25;;;22.60;39.00;;;;;;4955148;28;20035;-69
2022/04/30 13:25:18;;;;;;;5.32;2.55;;;22.80;37.90;;;;;;4960898;28;20039;-68
2022/04/30 13:27:46;;;;;;;4.47;1.92;;;22.80;38.60;;;;;;4961001;28;20034;-68
2022/04/30 13:30:13;;;;;;;7.72;2.10;;;22.80;38.40;;;;;;4963011;28;20042;-70
2022/04/30 13:32:38;;;;;;;4.35;1.90;;;22.90;38.40;;;;;;4958384;28;20030;-70
2022/04/30 13:35:05;;;;;;;5.20;2.05;;;23.00;37.90;;;;;;4953850;28;20533;-69
2022/04/30 13:37:30;;;;;;;7.68;2.10;;;23.00;37.00;;;;;;4958741;28;20086;-70
2022/04/30 13:39:56;;;;;;;3.03;1.90;;;22.80;36.40;;;;;;4955240;28;20031;-70
2022/04/30 13:42:22;;;;;;;6.30;2.53;;;22.90;36.70;;;;;;4956392;28;20134;-69
2022/04/30 13:44:47;;;;;;;3.78;2.00;;;22.90;37.00;;;;;;4952728;28;20027;-69
2022/04/30 13:47:13;;;;;;;4.53;2.15;;;22.90;37.60;;;;;;4954059;28;20494;-70